createdAt,value
2023-04-29T00:01:34.253Z,14.66
2023-04-29T00:04:02.083Z,15.29
2023-04-29T00:06:29.584Z,15.11
2023-04-29T00:08:56.993Z,14.75
2023-04-29T00:11:24.618Z,14.81
2023-04-29T00:13:51.978Z,15.04
2023-04-29T00:16:19.381Z,14.84
2023-04-29T00:18:47.252Z,14.61
2023-04-29T00:21:14.673Z,14.80
2023-04-29T00:23:42.013Z,14.95
2023-04-29T00:26:09.684Z,14.21
2023-04-29T00:28:37.195Z,15.02
2023-04-29T00:31:04.667Z,15.12
2023-04-29T00:33:32.398Z,15.24
2023-04-29T00:35:59.753Z,15.47
2023-04-29T00:38:27.142Z,15.51
2023-04-29T00:40:55.651Z,15.61
2023-04-29T00:43:23.048Z,15.72
2023-04-29T00:45:51.139Z,15.55
2023-04-29T00:48:18.785Z,15.65
2023-04-29T00:50:46.247Z,15.58
2023-04-29T00:53:13.640Z,15.68
2023-04-29T00:55:42.093Z,15.67
2023-04-29T00:58:10.611Z,15.56
2023-04-29T01:00:38.103Z,15.67
2023-04-29T01:03:06.171Z,15.92
2023-04-29T01:05:33.783Z,15.59
2023-04-29T01:08:38.847Z,15.34
2023-04-29T01:11:10.932Z,15.75
2023-04-29T01:13:51.189Z,15.70
2023-04-29T01:16:21.677Z,15.64
2023-04-29T01:18:50.629Z,15.52
2023-04-29T01:21:19.207Z,15.57
2023-04-29T01:23:46.829Z,15.53
2023-04-29T01:26:14.786Z,15.32
2023-04-29T01:29:21.012Z,15.32
2023-04-29T01:31:51.729Z,15.17
2023-04-29T01:34:23.566Z,15.34
2023-04-29T01:37:14.160Z,15.30
2023-04-29T01:39:48.420Z,14.89
2023-04-29T01:42:51.862Z,14.69
2023-04-29T01:45:21.589Z,14.40
2023-04-29T01:47:49.467Z,14.92
2023-04-29T01:50:17.062Z,15.04
2023-04-29T01:52:44.537Z,14.85
2023-04-29T01:55:12.453Z,15.17
2023-04-29T01:57:40.354Z,14.97
2023-04-29T02:00:09.063Z,15.36
2023-04-29T02:02:41.007Z,15.18
2023-04-29T02:05:10.081Z,14.38
2023-04-29T02:07:40.207Z,14.86
2023-04-29T02:10:07.858Z,15.18
2023-04-29T02:12:36.274Z,15.54
2023-04-29T02:15:03.786Z,14.90
2023-04-29T02:17:31.282Z,14.93
2023-04-29T02:19:58.973Z,15.07
2023-04-29T02:22:26.382Z,14.22
2023-04-29T02:24:56.159Z,14.11
2023-04-29T02:27:23.914Z,13.73
2023-04-29T02:29:51.765Z,14.21
2023-04-29T02:32:20.730Z,14.34
2023-04-29T02:34:49.180Z,13.57
2023-04-29T02:37:16.594Z,13.77
2023-04-29T02:39:43.966Z,14.05
2023-04-29T02:42:13.747Z,14.00
2023-04-29T02:44:42.555Z,13.94
2023-04-29T02:47:09.971Z,13.42
2023-04-29T02:49:37.683Z,13.62
2023-04-29T02:52:05.108Z,13.79
2023-04-29T02:54:33.066Z,13.38
2023-04-29T02:57:00.759Z,14.16
2023-04-29T02:59:28.256Z,14.07
2023-04-29T03:01:55.662Z,14.68
2023-04-29T03:04:24.003Z,14.10
2023-04-29T03:06:51.456Z,14.53
2023-04-29T03:09:18.818Z,14.49
2023-04-29T03:11:46.725Z,14.05
2023-04-29T03:14:14.178Z,14.04
2023-04-29T03:16:41.668Z,14.54
2023-04-29T03:19:10.488Z,14.85
2023-04-29T03:21:37.885Z,15.12
2023-04-29T03:24:05.776Z,15.12
2023-04-29T03:26:33.620Z,14.90
2023-04-29T03:29:01.028Z,15.14
2023-04-29T03:31:28.717Z,15.21
2023-04-29T03:33:56.382Z,15.05
2023-04-29T03:36:23.866Z,15.20
2023-04-29T03:38:51.307Z,15.03
2023-04-29T03:41:19.031Z,15.03
2023-04-29T03:43:47.822Z,14.86
2023-04-29T03:46:15.244Z,14.97
2023-04-29T03:48:42.969Z,14.90
2023-04-29T03:51:10.880Z,14.98
2023-04-29T03:53:38.584Z,14.89
2023-04-29T03:56:07.006Z,15.29
2023-04-29T03:58:34.398Z,15.20
2023-04-29T04:01:01.809Z,15.15
2023-04-29T04:03:32.726Z,14.73
2023-04-29T04:06:00.221Z,14.80
2023-04-29T04:08:27.675Z,15.22
2023-04-29T04:10:55.705Z,15.08
2023-04-29T04:13:23.724Z,15.46
2023-04-29T04:15:52.132Z,15.20
2023-04-29T04:18:19.998Z,14.95
2023-04-29T04:20:47.635Z,15.26
2023-04-29T04:23:15.094Z,14.76
2023-04-29T04:25:49.803Z,15.00
2023-04-29T04:28:17.544Z,15.25
2023-04-29T04:30:46.382Z,15.39
2023-04-29T04:33:13.836Z,15.22
2023-04-29T04:35:41.320Z,14.93
2023-04-29T04:38:09.335Z,14.92
2023-04-29T04:40:37.177Z,15.00
2023-04-29T04:43:07.299Z,15.16
2023-04-29T04:45:36.717Z,14.92
2023-04-29T04:48:04.590Z,15.02
2023-04-29T04:50:33.251Z,15.25
2023-04-29T04:53:01.135Z,15.36
2023-04-29T04:55:29.605Z,15.48
2023-04-29T04:57:57.265Z,15.57
2023-04-29T05:00:24.959Z,15.44
2023-04-29T05:02:52.523Z,15.54
2023-04-29T05:05:20.141Z,15.41
2023-04-29T05:07:47.797Z,15.83
2023-04-29T05:10:15.517Z,15.58
2023-04-29T05:12:43.618Z,15.66
2023-04-29T05:15:11.501Z,14.68
2023-04-29T05:17:39.308Z,14.98
2023-04-29T05:20:07.588Z,15.53
2023-04-29T05:22:35.435Z,15.83
2023-04-29T05:25:03.722Z,15.86
2023-04-29T05:27:31.285Z,15.02
2023-04-29T05:29:59.220Z,15.48
2023-04-29T05:32:26.691Z,15.67
2023-04-29T05:34:54.103Z,15.89
2023-04-29T05:37:21.733Z,15.58
2023-04-29T05:39:51.718Z,15.58
2023-04-29T05:42:19.250Z,15.64
2023-04-29T05:44:47.346Z,15.58
2023-04-29T05:47:14.996Z,15.42
2023-04-29T05:49:43.158Z,15.55
2023-04-29T05:52:10.858Z,15.66
2023-04-29T05:54:38.366Z,15.42
2023-04-29T05:57:06.954Z,15.29
2023-04-29T05:59:34.733Z,16.15
2023-04-29T06:02:03.444Z,16.48
2023-04-29T06:04:31.370Z,16.54
2023-04-29T06:06:58.970Z,16.59
2023-04-29T06:09:28.220Z,16.65
2023-04-29T06:11:56.413Z,16.52
2023-04-29T06:14:23.896Z,15.50
2023-04-29T06:16:51.405Z,16.37
2023-04-29T06:19:19.294Z,16.77
2023-04-29T06:21:46.698Z,16.55
2023-04-29T06:24:14.068Z,16.06
2023-04-29T06:26:41.751Z,15.88
2023-04-29T06:29:09.208Z,16.35
2023-04-29T06:31:36.931Z,15.67
2023-04-29T06:34:04.883Z,16.39
2023-04-29T06:36:33.163Z,15.67
2023-04-29T06:39:01.825Z,15.72
2023-04-29T06:41:29.635Z,15.47
2023-04-29T06:43:59.214Z,15.90
2023-04-29T06:46:29.205Z,16.02
2023-04-29T06:48:57.539Z,15.40
2023-04-29T06:51:25.042Z,16.08
2023-04-29T06:53:52.407Z,16.37
2023-04-29T06:56:21.839Z,16.65
2023-04-29T06:58:49.217Z,16.85
2023-04-29T07:01:17.048Z,16.92
2023-04-29T07:03:45.354Z,17.08
2023-04-29T07:06:12.872Z,17.21
2023-04-29T07:08:40.266Z,17.15
2023-04-29T07:11:08.480Z,17.50
2023-04-29T07:13:35.837Z,17.39
2023-04-29T07:16:03.217Z,17.62
2023-04-29T07:18:31.086Z,16.57
2023-04-29T07:21:02.099Z,17.11
2023-04-29T07:23:29.659Z,17.53
2023-04-29T07:25:57.403Z,16.77
2023-04-29T07:28:24.837Z,17.18
2023-04-29T07:30:53.799Z,17.67
2023-04-29T07:33:21.466Z,18.51
2023-04-29T07:35:48.834Z,18.77
2023-04-29T07:38:16.202Z,18.91
2023-04-29T07:40:43.829Z,19.97
2023-04-29T07:43:11.546Z,21.30
2023-04-29T07:45:39.960Z,22.02
2023-04-29T07:48:07.616Z,22.39
2023-04-29T07:50:36.605Z,22.10
2023-04-29T07:53:04.280Z,23.13
2023-04-29T07:55:31.931Z,26.05
2023-04-29T07:58:00.651Z,27.32
2023-04-29T08:00:28.349Z,27.77
2023-04-29T08:02:56.391Z,27.36
2023-04-29T08:05:24.544Z,26.34
2023-04-29T08:07:52.646Z,24.51
2023-04-29T08:10:22.391Z,23.24
2023-04-29T08:12:49.900Z,23.05
2023-04-29T08:15:18.582Z,23.38
2023-04-29T08:17:46.298Z,23.27
2023-04-29T08:20:13.760Z,22.60
2023-04-29T08:22:41.253Z,22.51
2023-04-29T08:25:09.141Z,20.30
2023-04-29T08:27:36.787Z,20.34
2023-04-29T08:30:04.660Z,19.62
2023-04-29T08:32:32.677Z,20.73
2023-04-29T08:35:00.081Z,22.61
2023-04-29T08:37:27.739Z,23.16
2023-04-29T08:39:55.368Z,23.42
2023-04-29T08:42:37.889Z,24.84
2023-04-29T08:45:06.218Z,26.52
2023-04-29T08:47:33.940Z,29.05
2023-04-29T08:50:04.207Z,29.45
2023-04-29T08:52:32.411Z,28.93
2023-04-29T08:55:02.468Z,28.44
2023-04-29T08:57:31.219Z,27.43
2023-04-29T09:00:00.150Z,27.27
2023-04-29T09:02:27.658Z,26.65
2023-04-29T09:05:04.971Z,26.20
2023-04-29T09:07:33.112Z,25.81
2023-04-29T09:10:00.489Z,24.96
2023-04-29T09:12:28.421Z,24.36
2023-04-29T09:14:59.576Z,24.16
2023-04-29T09:17:46.793Z,23.79
2023-04-29T09:20:20.130Z,23.60
2023-04-29T09:23:07.704Z,22.76
2023-04-29T09:25:36.419Z,23.34
2023-04-29T09:28:15.072Z,23.20
2023-04-29T09:30:47.175Z,23.33
2023-04-29T09:33:16.806Z,23.34
2023-04-29T09:35:44.444Z,23.15
2023-04-29T09:38:15.656Z,23.26
2023-04-29T09:40:58.418Z,23.10
2023-04-29T09:43:27.519Z,23.02
2023-04-29T09:45:55.051Z,23.30
2023-04-29T09:48:22.981Z,22.93
2023-04-29T09:51:04.157Z,23.12
2023-04-29T09:53:31.917Z,22.51
2023-04-29T09:56:01.365Z,23.93
2023-04-29T09:58:31.004Z,23.98
2023-04-29T10:01:01.670Z,22.63
2023-04-29T10:03:34.408Z,22.15
2023-04-29T10:06:02.747Z,22.58
2023-04-29T10:08:30.952Z,23.25
2023-04-29T10:11:00.578Z,23.73
2023-04-29T10:13:28.434Z,24.26
2023-04-29T10:16:15.354Z,24.29
2023-04-29T10:18:45.144Z,24.22
2023-04-29T10:21:12.800Z,24.08
2023-04-29T10:23:40.223Z,24.24
2023-04-29T10:26:07.613Z,24.37
2023-04-29T10:28:35.249Z,24.50
2023-04-29T10:31:06.767Z,24.34
2023-04-29T10:33:34.285Z,24.38
2023-04-29T10:36:02.219Z,24.51
2023-04-29T10:38:37.263Z,24.35
2023-04-29T10:41:16.034Z,24.84
2023-04-29T10:43:43.407Z,24.82
2023-04-29T10:46:17.427Z,23.04
2023-04-29T10:48:45.644Z,24.14
2023-04-29T10:51:14.381Z,22.37
2023-04-29T10:54:07.692Z,22.22
2023-04-29T10:56:37.948Z,22.78
2023-04-29T10:59:05.530Z,21.71
2023-04-29T11:01:46.701Z,22.14
2023-04-29T11:04:14.564Z,22.16
2023-04-29T11:06:44.814Z,21.78
2023-04-29T11:09:14.572Z,20.59
2023-04-29T11:12:03.485Z,20.04
2023-04-29T11:14:31.882Z,20.76
2023-04-29T11:17:01.532Z,21.51
2023-04-29T11:19:36.723Z,22.61
2023-04-29T11:22:28.091Z,23.05
2023-04-29T11:25:00.624Z,23.59
2023-04-29T11:27:31.872Z,23.80
2023-04-29T11:29:59.563Z,23.48
2023-04-29T11:32:33.940Z,23.63
2023-04-29T11:35:12.398Z,23.87
2023-04-29T11:37:40.279Z,24.35
2023-04-29T11:40:08.776Z,24.03
2023-04-29T11:42:36.930Z,23.67
2023-04-29T11:45:04.515Z,23.89
2023-04-29T11:47:32.264Z,24.36
2023-04-29T11:50:09.530Z,24.41
2023-04-29T11:52:38.651Z,23.84
2023-04-29T11:55:06.444Z,24.06
2023-04-29T11:57:33.815Z,24.20
2023-04-29T12:00:01.462Z,24.50
2023-04-29T12:02:32.292Z,24.85
2023-04-29T12:05:03.912Z,24.61
2023-04-29T12:07:31.425Z,24.86
2023-04-29T12:09:59.683Z,24.41
2023-04-29T12:12:31.727Z,24.59
2023-04-29T12:14:59.153Z,24.71
2023-04-29T12:17:26.773Z,23.66
2023-04-29T12:19:54.150Z,22.57
2023-04-29T12:22:21.534Z,23.16
2023-04-29T12:24:50.875Z,23.21
2023-04-29T12:27:18.410Z,23.27
2023-04-29T12:29:46.635Z,23.13
2023-04-29T12:32:17.216Z,23.23
2023-04-29T12:34:45.730Z,22.95
2023-04-29T12:37:13.562Z,23.07
2023-04-29T12:39:41.248Z,23.52
2023-04-29T12:42:12.020Z,21.71
2023-04-29T12:44:40.734Z,20.93
2023-04-29T12:47:09.992Z,22.03
2023-04-29T12:49:38.547Z,22.07
2023-04-29T12:52:09.555Z,21.57
2023-04-29T12:54:38.128Z,22.09
2023-04-29T12:57:05.922Z,21.96
2023-04-29T12:59:33.306Z,22.17
2023-04-29T13:02:01.661Z,21.58
2023-04-29T13:04:29.220Z,21.72
2023-04-29T13:07:04.362Z,21.15
2023-04-29T13:09:32.197Z,21.05
2023-04-29T13:11:59.772Z,21.22
2023-04-29T13:14:27.661Z,21.51
2023-04-29T13:16:55.346Z,21.48
2023-04-29T13:21:53.078Z,22.15
2023-04-29T13:24:21.109Z,22.18
2023-04-29T13:26:50.313Z,21.74
2023-04-29T13:29:19.700Z,22.05
2023-04-29T13:31:47.760Z,22.23
2023-04-29T13:34:15.191Z,22.33
2023-04-29T13:36:42.607Z,22.40
2023-04-29T13:39:10.516Z,22.22
2023-04-29T13:41:41.277Z,22.02
2023-04-29T13:44:23.633Z,22.34
2023-04-29T13:46:52.480Z,21.97
2023-04-29T13:49:42.276Z,21.63
2023-04-29T13:52:47.491Z,21.77
2023-04-29T13:55:30.096Z,22.26
2023-04-29T14:00:31.902Z,21.78
2023-04-29T14:03:02.460Z,22.02
2023-04-29T14:05:30.057Z,21.93
2023-04-29T14:07:57.527Z,22.52
2023-04-29T14:10:25.135Z,22.86
2023-04-29T14:12:52.989Z,22.72
2023-04-29T14:15:20.749Z,23.01
2023-04-29T14:17:50.271Z,22.86
2023-04-29T14:20:17.718Z,22.67
2023-04-29T14:22:45.352Z,22.76
2023-04-29T14:25:13.533Z,21.64
2023-04-29T14:27:40.911Z,21.47
2023-04-29T14:30:09.061Z,21.45
2023-04-29T14:32:36.760Z,21.84
2023-04-29T14:35:04.377Z,22.07
2023-04-29T14:37:31.794Z,22.19
2023-04-29T14:39:59.467Z,22.02
2023-04-29T14:42:27.277Z,22.59
2023-04-29T14:44:54.885Z,23.01
2023-04-29T14:47:22.788Z,23.04
2023-04-29T14:49:50.182Z,23.28
2023-04-29T14:52:17.554Z,23.07
2023-04-29T14:54:45.149Z,23.22
2023-04-29T14:57:12.921Z,23.27
2023-04-29T14:59:40.332Z,23.16
2023-04-29T15:02:08.221Z,22.99
2023-04-29T15:04:35.702Z,23.18
2023-04-29T15:07:03.426Z,23.31
2023-04-29T15:09:32.121Z,23.54
2023-04-29T15:11:59.476Z,23.46
2023-04-29T15:14:26.854Z,23.83
2023-04-29T15:16:54.479Z,24.24
2023-04-29T15:19:21.858Z,23.72
2023-04-29T15:21:49.197Z,23.83
2023-04-29T15:24:17.396Z,23.67
2023-04-29T15:26:44.847Z,21.86
2023-04-29T15:29:12.181Z,22.68
2023-04-29T15:31:39.827Z,22.88
2023-04-29T15:34:07.567Z,23.29
2023-04-29T15:36:34.967Z,21.87
2023-04-29T15:39:02.581Z,22.86
2023-04-29T15:41:29.922Z,23.18
2023-04-29T15:43:57.262Z,22.90
2023-04-29T15:46:24.904Z,21.19
2023-04-29T15:48:52.287Z,21.62
2023-04-29T15:51:19.685Z,21.62
2023-04-29T15:53:47.969Z,20.99
2023-04-29T15:56:15.333Z,20.92
2023-04-29T15:58:42.770Z,21.49
2023-04-29T16:01:10.426Z,21.40
2023-04-29T16:03:38.223Z,20.99
2023-04-29T16:06:05.953Z,21.15
2023-04-29T16:08:33.343Z,20.66
2023-04-29T16:11:01.197Z,21.41
2023-04-29T16:13:28.669Z,21.19
2023-04-29T16:15:56.578Z,20.79
2023-04-29T16:18:24.235Z,20.80
2023-04-29T16:20:52.172Z,20.73
2023-04-29T16:23:19.502Z,20.40
2023-04-29T16:25:47.133Z,20.76
2023-04-29T16:28:14.516Z,20.86
2023-04-29T16:30:41.867Z,20.55
2023-04-29T16:33:09.538Z,20.96
2023-04-29T16:35:37.199Z,20.60
2023-04-29T16:38:04.556Z,20.56
2023-04-29T16:40:32.200Z,20.82
2023-04-29T16:42:59.538Z,20.69
2023-04-29T16:45:26.862Z,20.93
2023-04-29T16:47:54.777Z,21.20
2023-04-29T16:50:22.224Z,20.52
2023-04-29T16:52:49.623Z,20.85
2023-04-29T16:55:17.300Z,21.10
2023-04-29T16:57:44.631Z,20.93
2023-04-29T17:00:12.270Z,20.78
2023-04-29T17:02:45.085Z,20.32
2023-04-29T17:05:12.504Z,20.78
2023-04-29T17:07:40.128Z,20.03
2023-04-29T17:10:08.246Z,19.92
2023-04-29T17:12:35.668Z,20.47
2023-04-29T17:15:04.046Z,20.45
2023-04-29T17:17:31.705Z,20.40
2023-04-29T17:19:59.142Z,20.41
2023-04-29T17:22:26.878Z,20.13
2023-04-29T17:24:54.216Z,20.20
2023-04-29T17:27:21.592Z,20.04
2023-04-29T17:29:49.406Z,20.32
2023-04-29T17:32:17.589Z,20.30
2023-04-29T17:34:44.946Z,20.14
2023-04-29T17:37:12.558Z,20.26
2023-04-29T17:39:39.962Z,19.55
2023-04-29T17:42:07.482Z,19.75
2023-04-29T17:44:37.427Z,19.24
2023-04-29T17:47:05.466Z,19.61
2023-04-29T17:49:32.815Z,19.99
2023-04-29T17:52:02.994Z,19.95
2023-04-29T17:54:30.510Z,19.68
2023-04-29T17:56:58.934Z,19.56
2023-04-29T17:59:26.574Z,19.14
2023-04-29T18:01:53.919Z,19.14
2023-04-29T18:04:21.535Z,19.44
2023-04-29T18:06:49.016Z,19.25
2023-04-29T18:09:16.578Z,19.19
2023-04-29T18:11:44.735Z,19.10
2023-04-29T18:14:12.264Z,19.05
2023-04-29T18:16:39.687Z,19.13
2023-04-29T18:19:07.466Z,18.99
2023-04-29T18:21:34.834Z,18.84
2023-04-29T18:24:02.245Z,18.76
2023-04-29T18:26:29.956Z,18.68
2023-04-29T18:28:57.287Z,18.67
2023-04-29T18:31:26.469Z,18.37
2023-04-29T18:33:54.396Z,17.89
2023-04-29T18:36:23.632Z,17.88
2023-04-29T18:38:50.993Z,18.11
2023-04-29T18:41:18.657Z,18.13
2023-04-29T18:43:46.043Z,18.15
2023-04-29T18:46:13.430Z,18.09
2023-04-29T18:48:41.416Z,17.82
2023-04-29T18:51:08.823Z,18.11
2023-04-29T18:53:36.240Z,18.05
2023-04-29T18:56:03.990Z,18.03
2023-04-29T18:58:31.446Z,18.21
2023-04-29T19:00:59.980Z,18.14
2023-04-29T19:03:27.987Z,18.28
2023-04-29T19:05:55.420Z,17.93
2023-04-29T19:08:22.772Z,18.34
2023-04-29T19:10:50.699Z,18.04
2023-04-29T19:13:18.091Z,18.24
2023-04-29T19:15:45.785Z,18.26
2023-04-29T19:18:13.386Z,18.34
2023-04-29T19:20:40.892Z,18.10
2023-04-29T19:23:08.527Z,18.61
2023-04-29T19:25:36.245Z,18.37
2023-04-29T19:28:03.919Z,18.51
2023-04-29T19:30:31.317Z,18.39
2023-04-29T19:32:58.979Z,17.95
2023-04-29T19:35:26.526Z,18.33
2023-04-29T19:37:54.819Z,18.32
2023-04-29T19:40:22.517Z,18.35
2023-04-29T19:42:49.841Z,18.03
2023-04-29T19:45:17.184Z,18.55
2023-04-29T19:47:44.850Z,18.11
2023-04-29T19:50:12.211Z,18.07
2023-04-29T19:52:39.634Z,17.83
2023-04-29T19:55:08.930Z,17.92
2023-04-29T19:57:36.477Z,18.10
2023-04-29T20:00:04.667Z,18.51
2023-04-29T20:02:33.980Z,18.00
2023-04-29T20:05:01.784Z,18.30
2023-04-29T20:07:29.121Z,18.19
2023-04-29T20:09:56.817Z,18.28
2023-04-29T20:12:24.568Z,18.05
2023-04-29T20:14:51.918Z,17.99
2023-04-29T20:17:19.309Z,18.14
2023-04-29T20:19:46.980Z,18.21
2023-04-29T20:22:14.398Z,18.11
2023-04-29T20:24:41.747Z,17.97
2023-04-29T20:27:09.357Z,18.21
2023-04-29T20:29:37.124Z,18.11
2023-04-29T20:32:06.000Z,18.15
2023-04-29T20:34:33.740Z,18.07
2023-04-29T20:37:01.437Z,17.91
2023-04-29T20:39:28.947Z,17.70
2023-04-29T20:41:56.980Z,17.67
2023-04-29T20:44:24.530Z,17.92
2023-04-29T20:46:53.077Z,17.73
2023-04-29T20:49:20.818Z,17.94
2023-04-29T20:51:49.343Z,17.85
2023-04-29T20:54:16.904Z,17.87
2023-04-29T20:56:44.545Z,17.63
2023-04-29T20:59:11.889Z,17.60
2023-04-29T21:01:39.312Z,17.48
2023-04-29T21:04:07.051Z,17.43
2023-04-29T21:06:34.495Z,17.49
2023-04-29T21:09:02.284Z,17.88
2023-04-29T21:11:29.916Z,17.27
2023-04-29T21:13:57.469Z,16.57
2023-04-29T21:16:24.906Z,16.80
2023-04-29T21:18:52.549Z,17.32
2023-04-29T21:21:19.922Z,17.63
2023-04-29T21:23:47.296Z,17.52
2023-04-29T21:26:15.119Z,17.49
2023-04-29T21:28:42.525Z,17.48
2023-04-29T21:31:15.309Z,17.33
2023-04-29T21:33:43.762Z,17.64
2023-04-29T21:36:11.148Z,17.74
2023-04-29T21:38:38.632Z,17.24
2023-04-29T21:41:06.380Z,17.06
2023-04-29T21:43:33.848Z,17.23
2023-04-29T21:46:01.298Z,17.42
2023-04-29T21:48:28.934Z,17.55
2023-04-29T21:50:56.334Z,17.24
2023-04-29T21:53:23.746Z,17.18
2023-04-29T21:55:51.409Z,17.46
2023-04-29T21:58:20.949Z,17.88
2023-04-29T22:00:58.346Z,17.50
2023-04-29T22:03:26.296Z,17.57
2023-04-29T22:05:53.735Z,17.46
2023-04-29T22:08:21.125Z,17.64
2023-04-29T22:10:48.805Z,17.61
2023-04-29T22:13:16.253Z,17.43
2023-04-29T22:15:43.611Z,17.52
2023-04-29T22:18:11.210Z,17.54
2023-04-29T22:20:38.575Z,17.51
2023-04-29T22:23:05.910Z,17.28
2023-04-29T22:25:33.571Z,17.70
2023-04-29T22:28:01.311Z,17.60
2023-04-29T22:30:28.630Z,16.90
2023-04-29T22:32:56.831Z,16.90
2023-04-29T22:35:24.219Z,17.17
2023-04-29T22:37:51.634Z,17.53
2023-04-29T22:40:19.360Z,17.45
2023-04-29T22:42:46.907Z,17.36
2023-04-29T22:45:14.222Z,17.35
2023-04-29T22:47:43.268Z,17.23
2023-04-29T22:50:10.951Z,17.46
2023-04-29T22:52:38.314Z,17.32
2023-04-29T22:55:06.238Z,17.64
2023-04-29T22:57:33.586Z,17.69
2023-04-29T23:00:01.115Z,17.18
2023-04-29T23:02:29.515Z,17.31
2023-04-29T23:04:57.694Z,17.06
2023-04-29T23:07:25.510Z,17.09
2023-04-29T23:09:53.355Z,17.07
2023-04-29T23:12:21.108Z,17.15
2023-04-29T23:14:48.650Z,17.00
2023-04-29T23:17:16.249Z,17.34
2023-04-29T23:19:43.618Z,17.21
2023-04-29T23:22:11.004Z,16.85
2023-04-29T23:24:38.591Z,17.16
2023-04-29T23:27:06.111Z,16.83
2023-04-29T23:29:36.505Z,16.68
2023-04-29T23:32:04.195Z,16.97
2023-04-29T23:34:31.573Z,17.18
2023-04-29T23:37:01.250Z,16.68
2023-04-29T23:39:28.917Z,16.94
2023-04-29T23:41:56.589Z,16.89
2023-04-29T23:44:25.170Z,16.90
2023-04-29T23:46:53.659Z,16.88
2023-04-29T23:49:21.028Z,16.65
2023-04-29T23:51:48.389Z,16.82
2023-04-29T23:54:16.281Z,16.80
2023-04-29T23:56:43.596Z,16.89
2023-04-29T23:59:10.974Z,17.08
